Date,TemperatureHighF,TemperatureAvgF,TemperatureLowF,DewpointHighF,DewpointAvgF,DewpointLowF,HumidityHigh,HumidityAvg,HumidityLow,PressureMaxIn,PressureMinIn,WindSpeedMaxMPH,WindSpeedAvgMPH,GustSpeedMaxMPH,PrecipitationSumIn
2013-1-1,50.2,47.8,44.4,49.6,37.4,18.7,98,72,31,29.20,29.06,19,19,19,0.00
2013-1-2,51.3,46.1,41.4,49.6,38.8,28.4,98,78,43,29.29,29.03,19,19,19,0.00
2013-1-3,47.3,40.5,33.4,38.2,33.1,26.5,93,76,53,29.38,29.23,19,9,19,0.00
2013-1-4,52.3,39.5,29.5,29.1,19.3,10.4,83,48,23,29.44,29.29,15,4,15,0.00
2013-1-5,52.9,40.9,30.7,25.0,16.8,13.3,51,38,24,29.50,29.32,9,3,9,0.00
2013-1-6,56.1,45.7,41.5,37.3,29.0,22.9,77,53,36,29.32,29.12,10,2,10,0.00
2013-1-7,55.9,44.0,35.4,26.1,23.1,20.5,62,45,27,29.53,29.32,13,3,13,0.00
2013-1-8,60.1,47.3,33.3,34.9,30.2,24.0,75,53,33,29.56,29.47,11,2,11,0.00
2013-1-9,69.4,55.6,41.4,47.0,40.3,33.7,81,58,36,29.56,29.47,0,0,0,0.00
2013-1-10,65.3,57.6,52.5,48.5,38.4,25.4,81,53,23,29.62,29.50,4,2,4,0.00
2013-1-11,52.5,46.3,42.4,48.9,43.3,34.1,98,90,52,29.53,29.29,4,4,4,0.00
2013-1-12,69.8,58.1,46.9,62.5,55.7,46.4,98,92,72,29.32,29.23,8,3,8,0.00
2013-1-13,75.2,66.7,61.0,59.9,56.1,50.5,92,71,43,29.26,29.17,15,4,15,0.00
2013-1-14,66.2,64.5,63.0,63.8,59.7,54.8,98,85,71,29.26,29.20,12,3,12,0.00
2013-1-15,65.1,46.0,43.0,60.7,45.3,42.5,98,97,85,29.35,29.17,12,6,12,0.00
2013-1-16,53.4,45.8,40.5,52.7,45.3,39.9,98,98,97,29.20,29.06,7,4,7,0.00
2013-1-17,52.5,45.3,33.3,52.0,44.7,32.8,98,98,93,29.26,28.97,21,6,21,0.00
2013-1-18,48.7,37.5,31.5,33.8,24.0,14.0,98,62,28,29.62,29.26,11,4,11,0.00
2013-1-19,57.9,42.9,29.1,23.7,19.8,12.4,70,42,17,29.59,29.26,8,3,8,0.00
2013-1-20,64.2,50.0,39.2,30.2,22.7,17.5,52,35,18,29.26,29.12,5,5,5,0.00
2013-1-21,61.3,48.4,35.8,29.8,19.7,6.7,63,34,19,29.23,29.00,5,5,5,0.00
2013-1-22,41.7,35.1,28.8,9.5,-1.6,-7.2,30,21,17,29.35,29.09,8,5,8,0.00
2013-1-23,42.8,32.9,21.9,13.4,-0.0,-11.0,40,24,18,29.44,29.12,14,3,14,0.00
2013-1-24,41.7,34.0,24.4,22.3,6.3,-9.4,61,33,18,29.56,29.06,23,6,23,0.00
2013-1-25,25.5,23.7,21.9,24.6,8.9,-9.1,97,58,22,29.56,29.17,8,3,8,0.00
2013-1-26,44.8,32.3,25.3,33.5,27.7,24.4,98,85,49,29.47,29.14,8,2,8,0.00
2013-1-27,45.5,34.5,25.7,30.1,20.0,15.8,94,57,38,29.68,29.47,13,3,13,0.83
2013-1-28,50.0,42.9,34.7,48.7,31.2,21.6,97,65,39,29.56,29.35,8,3,8,0.00
2013-1-29,73.9,59.7,46.8,56.5,50.2,46.2,98,74,42,29.35,29.17,4,4,4,0.00
2013-1-30,73.2,66.4,59.0,64.4,58.6,49.5,96,78,47,29.20,28.55,10,8,10,0.00
2013-1-31,59.0,45.6,37.9,49.6,20.3,6.5,82,40,19,29.12,28.64,10,10,10,0.00
2013-2-1,41.0,35.9,25.9,19.5,4.3,-7.4,42,27,18,29.47,29.00,24,7,24,0.00
2013-2-2,45.3,34.8,22.3,32.5,4.1,-4.7,75,29,17,29.47,29.09,22,4,22,0.00
2013-2-3,51.4,41.4,35.8,33.8,23.6,10.1,89,54,21,29.09,28.94,18,5,18,0.00
2013-2-4,53.1,41.3,29.7,20.3,14.6,9.5,53,35,18,29.23,29.09,11,3,11,0.00
2013-2-5,64.0,49.3,39.9,26.4,22.4,18.5,48,36,18,29.09,28.97,15,4,15,0.00
2013-2-6,67.3,52.4,41.2,29.3,18.8,6.3,59,30,12,29.35,29.06,12,3,12,0.00
2013-2-7,45.0,40.7,36.9,40.3,31.4,15.9,98,72,31,29.41,29.09,15,6,15,0.00
2013-2-8,59.7,44.5,36.9,40.9,33.8,18.5,98,71,31,29.20,28.94,18,7,18,0.00
2013-2-9,59.9,43.6,33.1,20.2,13.5,3.8,55,32,14,29.47,29.17,15,4,15,0.00
2013-2-10,56.8,44.5,32.5,36.7,14.6,7.4,73,32,15,29.56,29.29,13,4,13,0.00
2013-2-11,61.9,56.5,44.8,59.9,54.5,36.7,98,93,73,29.29,29.06,16,5,16,0.00
2013-2-12,62.8,53.6,45.1,53.0,26.1,11.9,98,42,16,29.20,29.03,3,3,3,0.00
2013-2-13,52.0,45.3,41.5,46.8,40.9,21.5,98,86,31,29.06,28.76,3,3,3,0.00
2013-2-14,55.2,44.5,34.0,31.5,24.0,16.3,75,46,23,29.17,28.97,3,3,3,0.00
2013-2-15,66.2,50.2,37.4,34.1,25.6,14.4,82,45,15,29.20,29.00,15,4,15,0.00
2013-2-16,45.9,35.8,30.2,35.1,27.4,9.0,98,74,40,29.09,28.91,15,3,15,0.00
2013-2-17,42.1,31.7,24.3,9.9,2.0,-4.3,45,29,18,29.35,29.03,23,6,23,0.00
2013-2-18,57.9,39.9,23.0,17.6,9.2,1.7,47,30,15,29.47,29.32,19,3,19,0.00
2013-2-19,48.4,42.1,36.7,45.7,32.3,15.9,98,71,40,29.32,28.94,19,5,19,0.00
2013-2-20,56.5,43.4,31.8,17.1,6.6,-0.7,39,23,15,29.23,29.06,15,4,15,0.00
2013-2-21,62.1,44.6,30.4,16.8,6.4,-2.6,35,22,14,29.35,29.17,12,4,12,0.00
2013-2-22,44.2,35.9,34.0,36.0,32.0,14.0,98,87,32,29.44,29.17,13,4,13,0.00
2013-2-23,43.3,39.0,34.9,42.6,38.5,34.4,98,98,98,29.23,28.91,2,2,2,0.00
2013-2-24,66.4,51.3,42.4,48.0,30.4,13.4,98,56,15,29.14,28.88,2,2,2,0.00
2013-2-25,46.8,38.6,33.8,20.1,16.5,13.5,52,41,27,29.32,29.12,10,2,10,0.00
2013-2-26,54.5,41.2,32.7,54.0,37.2,17.2,98,88,46,29.20,28.67,20,7,20,0.00
2013-2-27,60.8,49.0,40.6,41.4,35.1,28.5,98,64,33,28.91,28.73,15,4,15,0.00
2013-2-28,49.8,43.0,36.3,33.4,23.4,15.7,78,48,27,28.97,28.82,18,5,18,0.00
2013-3-1,48.4,40.6,32.2,24.7,21.5,18.1,69,47,33,29.03,28.94,13,4,13,0.00
2013-3-2,48.6,39.9,33.1,22.7,18.3,13.3,55,42,30,29.03,28.91,13,3,13,0.00
2013-3-3,48.7,37.2,29.1,14.8,10.8,6.5,45,34,21,29.09,28.94,17,5,17,0.00
2013-3-4,55.6,40.2,25.5,10.9,6.9,2.5,47,27,15,29.23,29.06,18,4,18,0.00
2013-3-5,46.9,44.5,40.1,46.2,29.5,6.8,98,63,20,29.17,28.67,20,3,20,0.00
2013-3-6,51.3,41.3,35.8,44.2,23.2,14.6,98,52,27,29.14,28.64,29,8,29,0.00
2013-3-7,57.0,43.0,34.5,24.9,20.9,17.1,64,43,25,29.35,29.14,17,5,17,0.00
2013-3-8,58.6,44.9,34.2,19.8,16.0,9.7,51,34,17,29.41,29.26,17,6,17,0.00
2013-3-9,69.3,50.4,34.3,25.7,20.0,14.4,53,33,15,29.47,29.32,14,3,14,0.00
2013-3-10,73.2,55.8,39.9,26.6,20.8,14.1,51,28,14,29.41,29.29,13,3,13,0.00
2013-3-11,70.2,56.9,44.6,53.8,36.5,10.4,86,49,21,29.32,29.00,24,5,24,0.00
2013-3-12,70.3,60.1,48.6,59.7,45.1,17.8,98,65,22,29.09,28.91,18,7,18,0.00
2013-3-13,57.9,46.8,36.3,28.1,16.4,6.4,65,31,17,29.26,29.06,25,6,25,0.00
2013-3-14,56.5,42.0,30.2,15.1,7.5,2.5,40,25,15,29.35,29.20,21,6,21,0.00
2013-3-15,64.4,50.5,33.4,29.0,16.3,3.3,40,26,16,29.29,29.00,23,4,23,0.00
2013-3-16,80.1,65.8,53.8,38.9,33.3,28.3,44,31,17,29.00,28.79,22,6,22,0.00
2013-3-17,61.9,54.0,41.5,50.4,38.8,32.3,84,58,35,29.26,28.97,18,6,18,0.00
2013-3-18,41.7,39.5,37.6,40.8,38.9,37.0,98,97,83,29.29,28.97,16,6,16,0.00
2013-3-19,68.5,51.3,39.4,45.9,25.3,4.4,98,52,12,29.14,28.94,24,6,24,0.00
2013-3-20,60.6,49.4,42.1,22.0,6.6,1.6,37,18,14,29.20,28.88,19,4,19,0.00
2013-3-21,50.2,39.8,30.4,25.4,8.2,-2.6,50,28,16,29.09,28.85,20,6,20,0.00
2013-3-22,55.8,40.2,24.4,11.3,6.2,2.8,43,26,15,29.14,29.06,15,4,15,0.00
2013-3-23,61.3,47.9,41.7,26.0,15.6,9.7,48,28,16,29.14,29.00,8,2,8,0.00
2013-3-24,44.8,39.7,35.6,38.9,34.2,24.6,98,83,46,29.03,28.64,23,6,23,0.00
2013-3-25,46.9,40.1,35.6,38.4,24.7,13.2,98,61,27,28.97,28.64,27,7,27,0.00
2013-3-26,50.2,41.2,34.9,21.9,18.1,15.1,53,40,28,29.26,28.94,17,6,17,0.00
2013-3-27,53.2,42.1,33.3,20.2,14.8,7.4,57,35,18,29.35,29.23,20,6,20,0.00
2013-3-28,59.9,45.1,32.7,17.5,13.4,8.4,45,29,14,29.38,29.23,20,5,20,0.00
2013-3-29,66.2,50.2,34.3,24.2,15.9,8.4,49,28,13,29.44,29.26,15,3,15,0.00
2013-3-30,74.8,57.8,45.0,37.9,28.3,19.9,53,34,16,29.35,29.17,13,3,13,0.00
2013-3-31,70.9,57.2,48.6,55.5,49.1,37.6,98,77,38,29.20,28.91,15,4,17,0.00
2013-4-1,74.1,61.7,54.0,55.0,38.0,20.4,98,51,14,29.12,28.94,22,4,22,0.00
2013-4-2,67.1,53.2,39.9,29.3,18.6,7.3,53,28,13,29.26,29.09,13,4,13,0.00
2013-4-3,66.7,52.7,40.3,13.8,7.6,0.2,21,16,12,29.38,29.26,13,4,15,0.00
2013-4-4,50.2,41.2,37.0,37.5,25.0,3.1,98,61,17,29.44,29.03,19,6,19,0.00
2013-4-5,69.3,51.1,36.9,44.2,34.5,23.2,98,61,22,29.14,29.00,5,5,5,0.00
2013-4-6,72.3,57.3,46.6,29.1,22.4,15.8,44,27,14,29.35,29.12,5,5,5,0.00
2013-4-7,75.2,60.3,43.0,44.5,32.6,23.6,74,39,16,29.38,29.20,5,5,5,0.00
2013-4-8,83.7,68.9,57.6,52.9,44.3,34.7,81,46,20,29.32,29.17,14,5,14,0.00
2013-4-9,91.2,74.3,60.4,52.9,46.1,34.6,74,42,15,29.32,29.17,13,4,13,0.00
2013-4-10,91.9,77.4,65.8,57.3,47.4,39.1,74,37,17,29.26,29.06,4,4,4,0.00
2013-4-11,84.0,72.0,63.5,61.9,53.7,42.8,84,56,24,29.14,28.91,4,4,4,0.00
2013-4-12,84.2,72.6,61.7,66.0,49.3,20.1,97,52,14,28.97,28.76,4,4,4,0.00
2013-4-13,79.5,65.9,54.1,31.2,25.2,18.5,36,23,12,29.14,28.97,15,3,15,0.00
2013-4-14,86.0,68.5,52.3,47.5,28.6,20.0,56,25,11,29.23,29.12,16,3,16,0.00
2013-4-15,72.3,64.5,58.1,57.4,50.6,43.9,97,63,40,29.35,29.12,16,4,16,0.00
2013-4-16,83.1,69.4,57.7,59.1,51.5,44.4,93,57,28,29.41,29.29,11,3,11,0.00
2013-4-17,92.5,73.0,61.3,60.6,52.6,40.3,91,54,18,29.38,29.23,14,3,14,0.00
2013-4-18,85.8,72.2,62.4,60.5,50.4,38.3,84,51,20,29.35,29.12,17,4,17,0.00
2013-4-19,82.2,69.9,58.1,63.6,59.8,47.8,92,72,39,29.14,28.88,5,5,5,0.00
2013-4-20,69.4,56.6,46.4,49.5,23.6,13.7,74,31,15,29.38,29.00,5,5,5,0.00
2013-4-21,65.8,53.6,45.0,31.5,26.5,22.0,53,36,23,29.59,29.35,5,5,5,0.00
2013-4-22,67.1,52.9,37.8,33.2,23.5,9.5,73,37,12,29.56,29.35,18,6,18,0.00
2013-4-23,76.3,58.3,46.8,47.9,41.1,33.0,91,57,23,29.38,29.23,8,4,8,0.00
2013-4-24,77.9,65.3,53.6,51.7,45.8,39.1,91,53,26,29.29,29.12,18,5,18,0.00
2013-4-25,78.1,63.5,52.9,52.6,29.3,17.6,69,31,13,29.41,29.14,11,3,11,0.00
2013-4-26,80.6,64.1,48.7,31.1,21.8,15.8,37,21,12,29.56,29.41,0,0,0,0.00
2013-4-27,76.5,63.3,56.8,49.0,33.4,23.1,68,36,15,29.47,29.38,0,0,0,0.00
2013-4-28,59.7,56.9,54.5,56.1,51.5,46.0,98,83,66,29.38,29.17,0,0,0,0.00
2013-4-29,77.0,63.7,56.7,60.7,56.6,49.4,98,81,40,29.17,29.06,10,1,10,0.00
2013-4-30,68.4,62.1,56.7,60.6,55.6,50.4,98,81,53,29.32,29.12,1,1,1,0.00
2013-5-1,63.5,58.8,55.6,58.7,55.1,51.9,98,88,68,29.44,29.29,1,1,1,0.00
2013-5-2,63.5,58.1,54.5,57.1,55.1,52.6,98,90,69,29.47,29.35,1,1,1,0.00
2013-5-3,69.8,59.3,50.0,52.8,44.2,32.3,98,61,34,29.38,29.23,19,5,19,0.00
2013-5-4,65.8,55.5,48.7,52.5,42.4,0.0,90,64,34,29.32,29.14,18,7,18,0.00
2013-5-5,57.0,53.9,50.2,56.5,49.0,41.7,98,84,69,29.17,29.03,23,6,23,0.00
2013-5-6,73.0,62.2,56.3,64.7,57.8,54.8,98,87,54,29.09,28.94,19,5,19,0.00
2013-5-7,74.3,61.9,54.3,56.3,47.2,30.8,98,65,22,29.09,28.97,12,3,12,0.00
2013-5-8,72.7,63.1,54.9,56.5,51.2,42.3,91,68,35,29.14,29.03,11,2,11,0.00
2013-5-9,87.4,70.8,55.9,58.4,46.7,33.8,98,50,16,29.20,29.12,12,3,12,0.00
2013-5-10,89.1,76.2,62.4,51.0,46.4,39.0,63,38,19,29.20,29.06,2,2,2,0.00
2013-5-11,84.7,73.5,65.7,62.9,52.9,44.1,68,50,26,29.09,28.94,2,2,2,0.00
2013-5-12,77.5,66.2,55.9,59.7,34.9,15.8,89,37,13,29.14,28.94,2,2,2,0.00
2013-5-13,72.3,60.6,49.8,26.3,18.5,9.2,32,20,13,29.32,29.12,14,4,14,0.00
2013-5-14,77.9,62.4,44.2,30.5,23.9,18.1,50,25,13,29.38,29.17,13,3,13,0.00
2013-5-15,93.6,76.3,60.3,48.1,40.7,28.0,45,29,17,29.20,29.06,15,4,15,0.00
2013-5-16,89.8,77.8,67.3,52.7,45.2,30.5,58,34,13,29.14,29.06,15,4,15,0.00
2013-5-17,94.6,79.2,65.7,60.7,47.8,31.0,78,38,11,29.23,29.12,11,3,11,0.00
2013-5-18,77.7,70.6,64.4,64.0,56.7,44.9,97,64,37,29.29,29.17,12,2,12,0.00
2013-5-19,77.7,69.2,64.4,69.2,64.7,60.2,98,87,58,29.29,29.20,13,3,13,0.00
2013-5-20,81.9,71.6,67.6,69.5,65.9,0.0,100,84,47,29.26,29.12,14,3,14,0.00
2013-5-21,89.1,75.5,67.6,68.7,64.6,49.5,98,73,32,29.23,29.09,14,3,14,0.00
2013-5-22,88.3,76.0,66.7,68.7,60.5,50.1,91,63,29,29.17,29.03,16,4,16,0.00
2013-5-23,81.7,72.0,64.4,67.1,60.7,52.0,98,71,40,29.12,28.97,12,3,12,0.00
2013-5-24,73.6,66.1,54.3,61.8,37.9,17.9,92,43,14,29.32,28.97,21,5,21,0.00
2013-5-25,79.5,64.0,48.9,35.5,25.3,17.5,44,25,12,29.44,29.23,16,4,16,0.00
2013-5-26,80.8,67.4,57.4,36.1,28.4,19.9,35,24,12,29.41,29.29,13,3,13,0.00
2013-5-27,88.7,73.8,59.0,55.7,36.2,27.3,64,28,13,29.38,29.29,16,3,16,0.00
2013-5-28,90.5,76.0,64.4,60.5,53.0,42.6,87,50,21,29.38,29.29,19,5,19,0.00
2013-5-29,91.8,77.5,64.9,59.1,49.7,35.3,78,42,15,29.38,29.29,24,4,24,0.00
2013-5-30,93.9,78.0,66.2,62.0,51.0,39.1,83,45,17,29.44,29.29,14,3,14,0.00
2013-5-31,93.7,79.4,68.4,66.4,54.5,40.5,90,49,17,29.41,29.23,18,4,18,0.00
2013-6-1,92.1,79.5,69.3,65.4,54.2,40.5,86,47,18,29.29,29.14,19,5,19,0.00
2013-6-2,90.9,77.7,68.5,70.5,57.0,43.5,97,55,21,29.20,29.03,17,4,17,0.00
2013-6-3,89.6,73.5,67.6,70.1,64.1,48.0,98,77,28,29.09,28.97,14,3,14,0.00
2013-6-4,83.5,73.4,67.6,65.3,57.7,48.6,89,61,31,29.23,29.06,13,4,13,0.00
2013-6-5,80.4,71.5,67.3,65.1,54.9,46.8,90,58,32,29.26,29.12,13,4,13,0.00
2013-6-6,76.3,69.7,66.7,72.0,68.1,63.6,98,94,80,29.14,28.94,115,4,115,0.00
2013-6-7,76.3,70.0,68.0,72.1,67.7,64.3,98,93,68,29.00,28.73,12,4,12,0.00
2013-6-8,88.5,75.2,65.1,67.8,60.4,50.1,98,66,29,29.23,28.97,10,2,11,0.00
2013-6-9,93.7,78.9,69.1,72.5,61.0,46.6,85,59,22,29.32,29.17,32,3,32,0.00
2013-6-10,86.5,74.4,70.2,72.0,67.2,57.6,92,79,39,29.23,29.00,20,5,20,0.00
2013-6-11,88.7,77.7,68.7,66.3,55.7,42.3,90,53,21,29.14,29.06,14,4,14,0.00
2013-6-12,95.5,81.9,68.0,65.0,56.9,49.4,71,45,25,29.14,29.00,13,3,13,0.00
2013-6-13,100.2,81.7,69.8,70.0,58.8,30.3,79,52,12,29.03,28.79,42,5,42,0.00
2013-6-14,86.5,74.7,64.0,55.1,40.5,29.1,57,31,13,29.14,28.91,14,4,14,0.00
2013-6-15,91.0,77.3,63.7,53.8,43.7,30.5,69,34,12,29.29,29.14,14,3,14,0.00
2013-6-16,91.4,78.8,67.3,56.5,50.6,42.4,64,40,19,29.29,29.12,18,5,18,0.00
2013-6-17,93.0,78.5,71.2,67.9,57.5,44.7,81,52,20,29.17,29.06,12,4,12,0.00
2013-6-18,88.7,75.0,69.3,68.8,63.4,52.4,95,71,31,29.09,28.91,20,4,20,0.00
2013-6-19,86.7,75.3,66.9,68.2,57.9,0.0,94,60,26,29.26,29.03,12,3,12,0.00
2013-6-20,87.1,74.7,65.5,64.3,53.2,41.1,94,54,21,29.38,29.26,57,4,57,0.00
2013-6-21,87.4,74.4,61.9,55.2,43.9,28.9,68,38,13,29.41,29.32,13,4,13,0.00
2013-6-22,88.3,74.6,67.8,65.5,59.2,47.8,85,61,29,29.35,29.23,14,4,14,0.00
2013-6-23,93.0,78.6,69.3,69.6,60.9,51.2,89,59,27,29.35,29.26,10,2,10,0.00
2013-6-24,94.6,78.5,71.4,71.3,62.4,51.5,90,62,24,29.35,29.23,18,5,18,0.00
2013-6-25,99.5,79.0,71.2,72.1,62.2,44.6,89,62,17,29.26,29.12,20,3,20,0.00
2013-6-26,94.3,77.6,68.9,67.9,62.5,46.5,90,65,24,29.17,29.06,17,3,17,0.00
2013-6-27,91.6,78.7,69.3,70.9,64.4,54.1,96,66,29,29.09,28.88,17,4,17,0.00
2013-6-28,94.6,79.5,71.6,71.7,63.0,48.9,95,63,22,28.91,28.76,23,4,23,0.00
2013-6-29,89.2,77.9,70.0,69.0,63.6,40.2,95,66,29,28.88,28.76,15,3,15,0.00
2013-6-30,86.0,74.9,69.3,69.2,65.9,56.9,97,75,39,29.00,28.85,13,4,13,0.00
2013-7-1,84.6,75.2,69.8,68.5,64.1,54.8,95,71,37,29.14,28.97,10,3,10,0.00
2013-7-2,78.6,73.4,71.4,70.5,68.4,62.9,94,85,60,29.35,29.14,12,4,12,0.00
2013-7-3,86.9,77.5,72.3,73.3,67.7,57.6,97,74,39,29.38,29.26,12,4,13,0.00
2013-7-4,90.5,78.8,72.5,72.7,65.6,53.7,94,67,30,29.44,29.32,15,3,15,0.00
2013-7-5,91.8,77.7,72.0,74.9,66.6,53.7,94,71,30,29.41,29.32,15,3,15,22.69
2013-7-6,94.6,79.7,70.5,72.2,63.2,48.8,94,63,23,29.38,29.23,11,3,11,0.00
2013-7-7,91.9,79.3,71.8,69.7,63.0,52.0,88,62,27,29.35,29.20,12,3,12,0.00
2013-7-8,94.8,80.3,72.7,70.9,63.1,43.8,89,62,19,29.35,29.23,8,3,8,0.00
2013-7-9,94.5,81.1,73.4,71.3,63.4,52.9,88,60,27,29.32,29.20,9,3,9,0.00
2013-7-10,96.4,80.2,72.7,72.2,63.8,50.2,92,63,22,29.26,29.06,10,3,10,0.00
2013-7-11,79.0,75.3,72.5,72.0,69.8,65.6,91,83,69,29.12,29.00,13,3,58,0.00
2013-7-12,79.9,73.5,68.7,69.7,63.9,55.4,92,74,47,29.14,29.00,12,4,12,0.00
2013-7-13,83.7,73.7,68.5,71.4,66.3,57.7,94,79,43,29.32,29.12,17,4,17,0.00
2013-7-14,90.3,78.0,71.6,71.0,64.6,51.3,95,68,28,29.44,29.29,15,5,15,0.00
2013-7-15,94.8,80.7,70.3,71.5,60.5,46.7,92,56,21,29.47,29.38,10,3,10,0.00
2013-7-16,101.5,86.0,71.8,67.6,56.0,44.4,81,42,15,29.47,29.32,9,2,9,0.00
2013-7-17,97.7,85.0,75.9,66.3,59.8,46.7,71,46,19,29.41,29.23,11,3,11,0.00
2013-7-18,102.0,84.5,74.3,71.4,61.8,44.4,80,53,15,29.32,29.17,2,2,2,0.00
2013-7-19,93.7,83.5,75.7,69.8,61.0,52.2,81,50,26,29.26,29.12,2,2,2,0.00
2013-7-20,93.0,80.6,74.5,68.7,63.3,52.4,78,58,28,29.20,29.06,2,2,2,0.00
2013-7-21,94.5,79.3,73.2,69.9,63.5,51.2,86,63,25,29.17,29.06,10,3,10,0.00
2013-7-22,89.4,79.2,72.9,69.3,63.3,51.6,88,62,29,29.12,28.97,13,3,13,0.00
2013-7-23,94.5,82.6,73.0,69.1,57.0,42.1,86,47,17,29.00,28.88,16,4,16,0.00
2013-7-24,100.6,83.6,69.4,66.1,54.2,33.8,79,44,10,29.03,28.88,13,3,13,0.00
2013-7-25,84.2,75.0,67.8,64.1,55.9,47.5,81,54,29,29.17,28.97,11,4,11,0.00
2013-7-26,93.0,78.4,67.5,62.6,50.5,38.8,78,43,17,29.26,29.12,9,3,10,0.00
2013-7-27,85.3,73.3,68.9,67.3,62.4,50.6,90,72,32,29.20,29.06,17,3,17,0.00
2013-7-28,92.1,77.7,69.4,67.0,60.1,44.1,88,61,21,29.17,29.06,13,3,13,0.00
2013-7-29,91.2,78.1,68.5,68.0,52.6,38.2,89,48,18,29.32,29.12,11,3,11,0.00
2013-7-30,93.7,78.0,67.1,59.9,48.4,35.6,71,39,14,29.35,29.26,9,2,9,0.00
2013-7-31,86.9,77.7,71.2,68.2,57.8,38.7,88,55,19,29.29,29.12,1,1,1,0.00
2013-8-1,93.2,78.7,71.1,68.1,61.7,49.8,87,61,24,29.14,29.00,1,1,1,0.00
2013-8-2,97.2,82.4,72.0,71.2,53.7,40.4,89,45,16,29.17,29.09,1,1,1,0.00
2013-8-3,95.2,83.0,75.2,70.3,59.1,46.7,83,49,20,29.17,29.06,7,2,7,0.00
2013-8-4,92.3,80.0,72.1,63.9,49.5,30.3,71,40,12,29.17,29.06,3,3,3,0.00
2013-8-5,89.4,77.8,68.2,58.0,48.5,38.7,69,39,18,29.23,29.12,3,3,3,0.00
2013-8-6,79.3,73.2,67.1,63.7,54.6,45.7,86,54,33,29.23,29.12,3,3,3,0.00
2013-8-7,90.9,78.9,70.9,63.5,53.5,40.1,77,46,18,29.23,29.14,9,3,9,0.00
2013-8-8,91.8,79.3,72.5,67.3,58.9,48.5,80,52,24,29.23,29.12,10,3,10,0.00
2013-8-9,95.5,80.4,72.5,68.6,62.3,45.8,81,58,22,29.20,29.12,18,4,18,0.00
2013-8-10,95.4,79.5,72.9,70.2,64.0,45.4,85,62,22,29.26,29.17,14,4,14,0.00
2013-8-11,98.4,82.8,71.6,68.4,59.1,43.7,85,51,17,29.26,29.14,8,3,8,0.00
2013-8-12,99.9,84.5,73.9,69.9,57.5,42.0,84,47,15,29.20,29.09,9,3,9,0.00
2013-8-13,93.0,79.1,72.0,69.0,61.4,47.8,84,59,27,29.09,28.97,12,4,12,0.00
2013-8-14,80.4,73.0,65.8,66.3,48.2,35.1,78,45,21,29.20,29.00,13,4,13,0.00
2013-8-15,79.5,68.3,60.6,53.2,43.0,30.3,71,44,18,29.32,29.20,14,4,14,0.00
2013-8-16,74.7,66.3,59.7,53.9,47.3,40.1,77,52,30,29.32,29.20,10,3,10,0.00
2013-8-17,67.5,64.7,62.2,64.8,59.4,51.2,91,83,63,29.32,29.23,10,4,10,0.00
2013-8-18,87.1,72.7,66.0,65.9,59.2,48.3,92,67,29,29.35,29.23,10,3,10,0.00
2013-8-19,78.4,70.1,65.8,67.0,62.8,54.2,91,79,45,29.32,29.23,8,2,8,0.00
2013-8-20,86.2,75.4,65.8,67.5,59.3,48.5,89,62,29,29.35,29.23,8,1,8,0.00
2013-8-21,89.1,76.4,71.8,75.5,66.4,51.9,89,74,29,29.38,29.23,8,2,8,0.00
2013-8-22,93.7,79.3,70.3,68.6,59.9,42.9,90,58,18,29.29,29.12,8,3,8,0.00
2013-8-23,93.0,77.3,67.6,64.6,57.2,43.4,83,55,19,29.23,29.09,10,4,10,0.00
2013-8-24,85.5,73.5,63.9,59.0,45.8,28.1,82,43,13,29.44,29.23,17,5,17,0.00
2013-8-25,83.7,71.7,62.2,57.9,44.0,27.5,80,42,14,29.53,29.41,12,3,12,0.00
2013-8-26,91.8,74.2,59.0,52.6,39.5,24.5,74,35,9,29.44,29.23,8,2,8,0.00
2013-8-27,94.6,79.2,66.2,63.7,48.3,38.6,64,37,17,29.26,29.12,9,3,9,0.00
2013-8-28,90.1,80.5,72.7,66.0,58.5,48.1,78,50,24,29.14,29.00,6,2,6,0.00
2013-8-29,91.9,81.7,73.6,66.2,56.7,46.0,74,46,21,29.14,29.00,2,2,2,0.00
2013-8-30,96.8,79.6,68.9,65.4,50.3,26.6,87,45,9,29.23,29.06,2,2,2,0.00
2013-8-31,94.5,79.5,69.8,66.6,54.6,43.4,82,46,18,29.12,29.00,2,2,2,0.00
2013-9-1,94.3,79.2,72.7,68.1,60.2,42.7,84,57,19,29.06,28.94,13,3,13,0.00
2013-9-2,93.0,80.0,70.7,68.1,59.2,43.4,87,54,20,29.06,28.94,10,2,10,0.00
2013-9-3,95.5,82.0,73.2,68.6,56.2,41.9,84,47,17,29.12,28.94,12,3,12,0.00
2013-9-4,93.7,78.8,68.0,56.1,47.0,31.1,56,36,11,29.23,29.09,1,1,1,0.00
2013-9-5,93.7,79.1,67.5,61.5,42.8,24.5,76,36,9,29.26,29.17,1,1,1,0.00
2013-9-6,87.6,74.9,65.5,46.0,38.1,28.1,44,29,13,29.32,29.20,1,1,1,0.00
2013-9-7,90.5,74.8,63.5,54.8,44.9,34.5,72,39,15,29.26,29.12,9,2,9,0.00
2013-9-8,93.6,79.1,67.1,60.5,45.6,24.7,77,36,9,29.17,29.06,12,3,12,0.00
2013-9-9,95.2,80.1,69.1,55.6,46.4,31.0,61,35,11,29.29,29.14,10,3,10,0.00
2013-9-10,96.4,82.1,71.1,65.4,49.0,31.0,80,38,11,29.38,29.29,8,3,8,0.00
2013-9-11,96.1,81.4,71.8,51.7,45.6,31.0,48,31,11,29.35,29.20,4,4,4,0.00
2013-9-12,96.1,80.8,72.0,60.2,49.6,37.0,65,37,14,29.23,28.94,4,4,4,0.00
2013-9-13,90.3,77.2,66.2,62.0,37.8,22.0,71,30,10,29.06,28.91,4,4,4,0.00
2013-9-14,82.8,68.0,58.5,41.0,31.5,22.0,45,28,11,29.26,29.03,13,4,13,0.00
2013-9-15,87.6,71.0,56.3,48.4,39.6,27.0,69,36,13,29.35,29.23,8,3,8,0.00
2013-9-16,91.4,77.3,68.5,65.5,46.9,24.5,81,42,9,29.32,29.17,4,4,4,0.00
2013-9-17,79.9,68.6,59.0,49.2,35.1,20.3,63,33,12,29.44,29.32,4,4,4,0.00
2013-9-18,80.1,64.8,53.4,46.0,33.7,19.6,74,37,12,29.44,29.29,4,4,4,0.00
2013-9-19,85.1,70.0,59.4,47.1,37.6,26.3,48,32,13,29.32,29.20,8,3,8,0.00
2013-9-20,86.0,73.0,67.1,62.3,49.3,38.4,80,46,21,29.23,29.09,4,2,4,0.00
2013-9-21,81.7,70.5,64.4,65.1,58.8,46.6,83,69,30,29.09,28.88,4,4,4,0.00
2013-9-22,80.8,69.0,61.9,59.1,42.4,25.6,86,45,14,29.03,28.82,4,4,4,0.00
2013-9-23,79.9,66.0,55.4,48.3,37.0,24.4,69,39,15,29.20,29.03,12,4,12,0.00
2013-9-24,85.6,68.3,58.8,45.8,38.5,22.1,62,37,11,29.23,29.06,3,3,3,0.00
2013-9-25,78.1,66.6,59.0,53.9,44.5,31.7,74,48,20,29.12,29.00,3,3,3,0.00
2013-9-26,81.7,67.7,59.9,55.8,39.5,22.0,81,42,12,29.17,29.03,3,3,3,0.00
2013-9-27,78.6,65.3,55.0,50.2,38.3,24.4,79,42,15,29.32,29.17,13,4,13,0.00
2013-9-28,74.7,62.7,54.0,49.0,37.2,23.2,79,43,16,29.41,29.29,3,3,3,0.00
2013-9-29,78.3,64.0,56.5,49.9,37.5,19.8,77,45,13,29.32,29.17,3,3,3,0.00
2013-9-30,84.7,66.8,54.7,49.6,36.8,22.0,74,39,11,29.23,29.12,3,3,3,0.00
2013-10-1,88.5,71.6,58.5,50.5,37.5,23.2,73,34,10,29.26,29.14,10,4,10,0.00
2013-10-2,90.7,74.9,61.5,55.3,38.3,22.8,76,33,10,29.29,29.17,6,6,6,0.00
2013-10-3,90.9,76.3,65.3,52.2,39.7,24.5,62,31,10,29.29,29.17,6,6,6,0.00
2013-10-4,94.8,76.5,65.7,59.1,43.9,24.7,78,38,9,29.29,29.17,6,6,6,0.00
2013-10-5,95.4,78.7,66.7,54.0,42.2,26.6,60,32,11,29.29,29.17,8,3,8,0.00
2013-10-6,88.5,75.8,66.6,64.7,47.3,28.2,78,42,13,29.20,29.06,6,3,6,0.00
2013-10-7,75.9,70.6,64.8,66.0,58.4,34.2,84,67,32,29.14,28.97,3,3,3,0.00
2013-10-8,64.8,60.9,56.8,36.8,30.3,25.6,44,32,23,29.32,29.12,3,3,3,0.00
2013-10-9,72.0,60.4,53.6,44.8,33.2,25.7,58,37,19,29.32,29.20,18,5,18,0.00
2013-10-10,67.3,60.1,55.2,56.0,46.8,37.1,82,62,47,29.23,29.06,11,6,11,0.00
2013-10-11,76.8,66.6,61.0,57.2,47.8,36.8,74,53,25,29.12,29.06,6,6,6,0.00
2013-10-12,76.8,66.6,59.2,60.0,50.4,36.1,81,60,24,29.20,29.09,6,6,6,0.00
2013-10-13,68.9,63.7,60.8,58.3,55.9,48.1,86,76,48,29.35,29.17,6,6,6,0.00
2013-10-14,65.5,61.6,58.1,57.4,53.7,47.5,88,76,53,29.38,29.29,15,5,15,0.00
2013-10-15,76.8,63.8,54.5,52.3,38.5,19.6,84,47,13,29.35,29.17,15,3,15,0.00
2013-10-16,81.0,68.1,60.4,54.9,44.4,32.9,76,46,19,29.20,29.06,3,3,3,0.00
2013-10-17,74.1,67.1,62.6,60.7,52.7,41.2,82,62,32,29.09,28.97,3,3,3,0.00
2013-10-18,72.3,63.5,56.1,60.3,38.5,22.3,85,45,16,29.14,29.00,4,3,4,0.00
2013-10-19,69.4,61.6,56.8,55.5,47.9,40.4,81,62,38,29.09,28.97,8,3,8,0.00
2013-10-20,71.1,57.0,47.3,51.1,28.1,12.1,82,39,12,29.23,29.03,13,2,13,0.00
2013-10-21,75.6,59.6,47.1,34.7,27.9,18.5,55,33,13,29.29,29.12,8,2,8,0.00
2013-10-22,68.0,61.6,57.7,56.4,43.3,34.7,86,53,31,29.14,28.91,3,3,3,0.00
2013-10-23,69.1,59.1,44.6,54.6,28.1,5.6,81,40,12,29.14,28.82,3,3,3,0.00
2013-10-24,61.7,49.2,37.6,18.3,12.3,7.1,42,24,14,29.29,29.12,3,3,3,0.00
2013-10-25,58.5,47.3,38.1,20.4,11.5,3.1,41,25,14,29.47,29.29,16,4,16,0.00
2013-10-26,62.6,47.4,32.7,18.2,11.4,5.6,47,26,13,29.44,29.17,18,3,18,0.00
2013-10-27,72.9,58.7,46.4,29.5,20.2,12.1,37,24,11,29.23,29.14,11,3,11,0.00
2013-10-28,71.8,58.3,50.7,41.9,33.4,23.5,63,41,17,29.38,29.20,6,2,6,0.00
2013-10-29,76.8,62.5,52.2,48.1,37.9,24.4,79,45,15,29.47,29.35,2,2,2,0.00
2013-10-30,80.1,66.3,57.0,42.2,36.9,26.3,54,36,15,29.41,29.26,2,2,2,0.00
2013-10-31,73.2,66.4,59.4,55.8,42.5,32.9,67,44,24,29.32,29.00,2,2,2,0.00
2013-11-1,70.3,66.6,60.4,61.1,56.0,47.6,83,69,46,29.06,28.82,14,3,14,0.00
2013-11-2,71.6,60.1,52.5,54.9,35.4,10.2,88,49,12,29.09,28.82,1,1,1,0.00
2013-11-3,65.1,53.1,45.9,19.4,13.5,7.2,30,21,13,29.47,29.06,1,1,1,0.00
2013-11-4,60.4,47.5,38.7,20.1,12.4,5.6,39,25,14,29.65,29.44,1,1,1,0.00
2013-11-5,57.7,47.6,37.0,39.0,22.8,12.1,64,38,22,29.62,29.53,11,3,11,0.00
2013-11-6,76.6,59.3,45.3,42.0,35.2,24.6,76,45,15,29.53,29.26,10,3,10,0.00
2013-11-7,67.6,59.4,45.7,56.2,34.4,7.1,88,44,16,29.26,29.06,13,4,13,0.00
2013-11-8,60.3,47.5,36.3,19.7,9.1,1.2,43,22,14,29.44,29.23,17,3,17,0.00
2013-11-9,61.3,48.3,34.0,19.3,9.5,3.0,42,22,14,29.47,29.29,14,2,14,0.00
2013-11-10,73.8,57.6,43.7,18.1,12.9,6.2,34,18,11,29.35,29.17,17,4,17,0.00
2013-11-11,66.2,50.8,35.1,13.6,7.6,0.2,34,18,13,29.47,29.26,10,2,10,0.00
2013-11-12,61.3,46.5,31.3,28.8,15.7,4.5,81,33,14,29.53,29.12,20,5,20,0.00
2013-11-13,49.5,35.2,26.8,6.0,2.7,-2.4,40,26,16,29.62,29.50,11,3,11,0.00
2013-11-14,59.7,42.8,28.6,10.3,5.5,0.5,38,22,14,29.59,29.41,12,2,12,0.00
2013-11-15,61.2,50.0,35.6,39.3,16.4,-2.6,56,28,14,29.47,29.29,9,2,9,0.00
2013-11-16,68.0,57.0,51.6,51.2,44.4,37.2,84,65,34,29.38,29.29,6,2,6,0.00
2013-11-17,68.7,61.2,54.5,62.4,51.2,38.6,88,73,34,29.32,29.00,11,2,11,0.00
2013-11-18,76.6,66.8,52.3,61.8,35.3,7.1,85,42,11,29.12,28.94,2,2,2,0.00
2013-11-19,57.9,49.1,42.8,9.8,5.4,2.2,20,16,14,29.38,29.09,2,2,2,0.00
2013-11-20,55.2,44.3,35.8,19.6,9.4,4.1,39,24,15,29.56,29.38,2,2,2,0.00
2013-11-21,62.6,50.6,40.8,27.1,23.4,18.8,48,35,23,29.59,29.47,13,3,13,0.00
2013-11-22,71.1,58.7,49.8,53.9,36.2,26.0,76,44,26,29.50,29.20,11,3,11,0.00
2013-11-23,62.1,55.5,41.0,54.4,27.4,0.8,84,41,14,29.32,29.14,15,4,15,0.00
2013-11-24,41.5,33.9,28.0,0.8,-5.8,-10.0,20,17,16,29.62,29.29,20,5,20,0.00
2013-11-25,46.9,34.2,22.8,4.4,-5.5,-12.9,20,18,15,29.62,29.44,11,3,11,0.00
2013-11-26,43.3,38.9,32.5,39.7,24.2,-4.7,88,64,16,29.44,28.73,18,5,18,0.00
2013-11-27,43.3,43.3,43.3,39.7,39.7,39.7,87,87,87,29.26,28.64,17,5,17,0.00
2013-11-28,43.3,43.3,43.3,39.7,39.7,39.7,87,87,87,29.56,29.26,18,3,18,0.00
2013-11-29,43.3,43.3,43.3,39.7,39.7,39.7,87,87,87,29.71,29.53,10,3,10,0.00
2013-11-30,43.3,43.3,43.3,39.7,39.7,39.7,87,87,87,29.74,29.47,10,3,11,0.00
2013-12-1,43.3,43.3,43.3,39.7,39.7,39.7,87,87,87,29.47,29.12,9,1,9,0.00
2013-12-2,43.3,43.3,43.3,39.7,39.7,39.7,87,87,87,29.14,28.91,9,1,9,0.00
2013-12-3,43.3,43.3,43.3,39.7,39.7,39.7,87,87,87,29.09,28.97,11,2,11,0.00
2013-12-4,43.3,43.3,43.3,39.7,39.7,39.7,87,87,87,29.20,29.09,12,2,12,0.00
2013-12-5,43.3,43.3,43.3,39.7,39.7,39.7,87,87,87,29.26,29.14,19,4,19,0.00
2013-12-6,43.3,43.3,43.3,39.7,39.7,39.7,87,87,87,29.20,29.12,27,6,27,0.00
2013-12-7,43.3,43.3,43.3,39.7,39.7,39.7,87,87,87,29.53,29.12,18,6,18,0.00
2013-12-8,43.3,43.3,43.3,39.7,39.7,39.7,87,87,87,29.53,29.38,17,4,17,0.00
2013-12-9,43.3,26.2,0.0,39.7,24.0,0.0,87,53,87,29.38,29.14,8,1,8,0.00
2013-12-10,54.1,35.7,0.0,44.5,20.9,-2.6,93,47,19,29.44,29.00,14,3,14,0.00
2013-12-11,52.0,38.8,27.3,14.4,6.1,-0.7,45,27,16,29.53,29.35,10,2,10,0.00
2013-12-12,49.3,38.3,30.7,12.1,1.2,-6.4,37,21,16,29.50,29.35,13,4,13,0.00
2013-12-13,53.6,40.3,27.7,8.1,0.5,-7.4,23,18,15,29.47,29.35,11,2,11,0.00
2013-12-14,46.4,41.7,38.1,40.3,22.4,1.5,87,55,18,29.38,28.91,21,4,204,0.00
2013-12-15,38.1,38.1,38.1,34.6,34.6,34.6,87,87,87,29.17,28.85,12,5,12,0.00
2013-12-16,38.1,38.1,38.1,34.6,34.6,34.6,87,87,87,29.26,29.14,10,4,10,0.00
2013-12-17,38.1,38.1,38.1,34.6,34.6,34.6,87,87,87,29.23,29.00,16,5,16,0.00
2013-12-18,38.1,24.5,0.0,34.6,22.3,0.0,87,56,87,29.38,29.12,14,3,14,0.00
2013-12-19,0.0,0.0,0.0,0.0,0.0,0.0,0,0,100,29.41,29.29,20,4,20,0.00
2013-12-20,0.0,0.0,0.0,0.0,0.0,0.0,0,0,100,29.35,29.23,16,3,16,0.00
2013-12-21,0.0,0.0,0.0,0.0,0.0,0.0,0,0,100,29.26,29.14,30,4,30,0.00
2013-12-22,0.0,0.0,0.0,0.0,0.0,0.0,0,0,100,29.20,29.12,26,6,26,0.00
2013-12-23,0.0,0.0,0.0,0.0,0.0,0.0,0,0,100,29.29,29.12,17,4,17,0.00
2013-12-24,0.0,0.0,0.0,0.0,0.0,0.0,0,0,100,29.53,29.23,15,6,15,0.00
2013-12-25,0.0,0.0,0.0,0.0,0.0,0.0,0,0,100,29.62,29.47,12,3,12,0.00
2013-12-26,0.0,0.0,0.0,0.0,0.0,0.0,0,0,100,29.47,29.32,10,3,10,0.00
2013-12-27,0.0,0.0,0.0,0.0,0.0,0.0,0,0,100,29.56,29.41,10,2,10,0.00
2013-12-28,0.0,0.0,0.0,0.0,0.0,0.0,0,0,100,29.50,29.26,0,0,0,0.00
2013-12-29,0.0,0.0,0.0,0.0,0.0,0.0,0,0,100,29.26,28.85,0,0,0,0.00
2013-12-30,0.0,0.0,0.0,0.0,0.0,0.0,0,0,100,29.23,29.00,5,0,5,0.00
2013-12-31,0.0,0.0,0.0,0.0,0.0,0.0,0,0,100,29.44,29.20,14,4,14,0.00
2014-1-1,0.0,0.0,0.0,0.0,0.0,0.0,0,0,100,29.50,29.23,15,2,15,0.00
2014-1-2,0.0,0.0,0.0,0.0,0.0,0.0,0,0,100,29.26,28.70,10,3,10,0.00